createdAt,value
2023-12-04T00:00:34.083Z,2.80
2023-12-04T00:03:01.539Z,2.90
2023-12-04T00:05:29.281Z,2.35
2023-12-04T00:07:58.869Z,2.78
2023-12-04T00:10:26.383Z,2.88
2023-12-04T00:12:53.904Z,2.92
2023-12-04T00:15:22.851Z,2.88
2023-12-04T00:17:50.389Z,3.03
2023-12-04T00:20:17.992Z,2.47
2023-12-04T00:22:45.501Z,3.08
2023-12-04T00:25:13.009Z,3.10
2023-12-04T00:27:40.548Z,2.78
2023-12-04T00:30:08.898Z,2.90
2023-12-04T00:32:36.565Z,2.70
2023-12-04T00:35:04.455Z,2.90
2023-12-04T00:37:32.202Z,2.83
2023-12-04T00:39:59.777Z,3.50
2023-12-04T00:42:27.251Z,2.90
2023-12-04T00:44:54.912Z,3.60
2023-12-04T00:47:22.671Z,3.58
2023-12-04T00:49:50.175Z,3.10
2023-12-04T00:52:17.777Z,3.20
2023-12-04T00:54:45.420Z,3.58
2023-12-04T00:57:12.951Z,3.05
2023-12-04T00:59:40.361Z,4.03
2023-12-04T01:02:09.011Z,3.20
2023-12-04T01:04:36.652Z,3.40
2023-12-04T01:07:07.714Z,3.03
2023-12-04T01:09:38.489Z,2.95
2023-12-04T01:12:06.520Z,3.20
2023-12-04T01:14:34.417Z,3.60
2023-12-04T01:17:02.261Z,3.33
2023-12-04T01:19:30.309Z,3.40
2023-12-04T01:21:57.871Z,3.00
2023-12-04T01:24:25.351Z,4.03
2023-12-04T01:26:53.460Z,3.45
2023-12-04T01:29:21.271Z,4.13
2023-12-04T01:31:48.839Z,3.20
2023-12-04T01:34:16.503Z,3.17
2023-12-04T01:36:44.276Z,3.40
2023-12-04T01:39:11.760Z,3.53
2023-12-04T01:41:39.272Z,3.13
2023-12-04T01:44:07.093Z,3.08
2023-12-04T01:46:34.752Z,3.58
2023-12-04T01:49:04.552Z,3.17
2023-12-04T01:51:32.929Z,3.38
2023-12-04T01:54:01.903Z,3.05
2023-12-04T01:56:29.517Z,4.03
2023-12-04T01:58:57.401Z,3.10
2023-12-04T02:01:25.597Z,3.05
2023-12-04T02:03:53.598Z,3.38
2023-12-04T02:06:21.933Z,3.30
2023-12-04T02:08:50.230Z,3.00
2023-12-04T02:11:17.917Z,3.30
2023-12-04T02:13:45.385Z,3.47
2023-12-04T02:16:15.278Z,3.90
2023-12-04T02:18:44.030Z,3.97
2023-12-04T02:21:11.574Z,4.05
2023-12-04T02:23:39.007Z,3.13
2023-12-04T02:26:18.722Z,3.42
2023-12-04T02:28:55.561Z,3.60
2023-12-04T02:31:24.421Z,3.97
2023-12-04T02:33:57.337Z,3.83
2023-12-04T02:36:26.949Z,3.08
2023-12-04T02:38:56.015Z,3.40
2023-12-04T02:41:23.707Z,3.65
2023-12-04T02:43:51.894Z,3.72
2023-12-04T02:46:19.425Z,3.25
2023-12-04T02:48:47.137Z,3.17
2023-12-04T02:51:14.870Z,3.20
2023-12-04T02:53:42.356Z,3.50
2023-12-04T02:56:14.322Z,3.28
2023-12-04T02:58:41.740Z,3.35
2023-12-04T03:01:09.394Z,4.15
2023-12-04T03:03:36.960Z,3.58
2023-12-04T03:06:04.817Z,3.38
2023-12-04T03:08:32.352Z,3.17
2023-12-04T03:11:00.371Z,3.20
2023-12-04T03:13:27.800Z,3.63
2023-12-04T03:15:55.295Z,3.22
2023-12-04T03:18:24.629Z,2.78
2023-12-04T03:20:52.166Z,3.30
2023-12-04T03:23:19.693Z,3.80
2023-12-04T03:25:47.465Z,2.90
2023-12-04T03:28:17.218Z,3.70
2023-12-04T03:30:47.077Z,3.33
2023-12-04T03:33:14.796Z,2.70
2023-12-04T03:35:42.488Z,3.08
2023-12-04T03:38:10.063Z,2.95
2023-12-04T03:40:37.463Z,3.80
2023-12-04T03:43:04.979Z,3.40
2023-12-04T03:45:32.593Z,3.30
2023-12-04T03:48:00.489Z,3.40
2023-12-04T03:50:28.111Z,3.13
2023-12-04T03:52:55.595Z,3.42
2023-12-04T03:55:23.235Z,2.97
2023-12-04T03:57:50.980Z,3.22
2023-12-04T04:00:18.728Z,2.63
2023-12-04T04:02:46.338Z,3.30
2023-12-04T04:05:15.366Z,2.35
2023-12-04T04:07:42.986Z,3.17
2023-12-04T04:10:10.834Z,3.10
2023-12-04T04:12:38.369Z,3.22
2023-12-04T04:15:06.358Z,3.85
2023-12-04T04:17:35.100Z,2.85
2023-12-04T04:20:02.901Z,2.80
2023-12-04T04:22:30.324Z,3.15
2023-12-04T04:24:58.426Z,2.97
2023-12-04T04:27:27.008Z,3.20
2023-12-04T04:29:55.073Z,2.85
2023-12-04T04:32:22.540Z,3.25
2023-12-04T04:34:50.093Z,3.03
2023-12-04T04:37:17.830Z,3.03
2023-12-04T04:39:45.425Z,3.17
2023-12-04T04:42:13.262Z,3.22
2023-12-04T04:44:40.752Z,2.70
2023-12-04T04:47:09.141Z,2.90
2023-12-04T04:49:36.858Z,3.15
2023-12-04T04:52:04.669Z,2.95
2023-12-04T04:54:35.272Z,3.13
2023-12-04T04:57:02.848Z,2.97
2023-12-04T04:59:33.397Z,2.85
2023-12-04T05:02:00.940Z,2.92
2023-12-04T05:04:28.552Z,3.25
2023-12-04T05:06:56.243Z,2.95
2023-12-04T05:09:23.772Z,3.30
2023-12-04T05:11:51.290Z,3.03
2023-12-04T05:14:18.881Z,3.38
2023-12-04T05:16:46.313Z,3.78
2023-12-04T05:19:13.868Z,3.65
2023-12-04T05:21:41.430Z,3.05
2023-12-04T05:24:09.060Z,2.88
2023-12-04T05:26:36.523Z,3.22
2023-12-04T05:29:04.241Z,3.72
2023-12-04T05:31:31.744Z,3.90
2023-12-04T05:33:59.324Z,3.15
2023-12-04T05:36:26.893Z,3.30
2023-12-04T05:38:56.226Z,2.85
2023-12-04T05:41:24.851Z,3.47
2023-12-04T05:43:52.261Z,3.08
2023-12-04T05:46:19.759Z,3.30
2023-12-04T05:48:47.381Z,2.90
2023-12-04T05:51:16.752Z,3.13
2023-12-04T05:53:44.447Z,5.03
2023-12-04T05:56:12.244Z,3.95
2023-12-04T05:58:39.682Z,3.08
2023-12-04T06:01:07.932Z,3.47
2023-12-04T06:03:35.498Z,3.70
2023-12-04T06:06:05.300Z,3.85
2023-12-04T06:08:33.207Z,3.72
2023-12-04T06:11:00.748Z,3.70
2023-12-04T06:13:28.321Z,3.67
2023-12-04T06:15:55.917Z,3.42
2023-12-04T06:18:24.628Z,3.28
2023-12-04T06:20:53.351Z,3.75
2023-12-04T06:23:21.140Z,3.70
2023-12-04T06:25:49.024Z,4.00
2023-12-04T06:28:16.813Z,3.58
2023-12-04T06:30:45.203Z,3.70
2023-12-04T06:33:14.419Z,3.67
2023-12-04T06:35:42.814Z,4.00
2023-12-04T06:38:11.980Z,3.60
2023-12-04T06:40:40.203Z,3.63
2023-12-04T06:43:08.946Z,4.05
2023-12-04T06:45:36.945Z,3.63
2023-12-04T06:48:04.818Z,3.60
2023-12-04T06:50:32.366Z,4.10
2023-12-04T06:52:59.960Z,3.67
2023-12-04T06:55:27.405Z,4.07
2023-12-04T06:57:54.901Z,3.78
2023-12-04T07:00:23.101Z,4.40
2023-12-04T07:02:52.168Z,3.75
2023-12-04T07:05:21.554Z,3.78
2023-12-04T07:07:49.537Z,3.97
2023-12-04T07:10:17.527Z,3.80
2023-12-04T07:12:46.153Z,3.70
2023-12-04T07:15:13.998Z,3.67
2023-12-04T07:17:41.763Z,4.40
2023-12-04T07:20:10.226Z,3.75
2023-12-04T07:22:38.859Z,4.30
2023-12-04T07:25:08.978Z,4.00
2023-12-04T07:27:36.801Z,4.18
2023-12-04T07:30:04.916Z,3.97
2023-12-04T07:32:34.307Z,4.30
2023-12-04T07:35:02.874Z,4.97
2023-12-04T07:37:32.668Z,3.97
2023-12-04T07:40:00.508Z,4.07
2023-12-04T07:42:28.101Z,3.85
2023-12-04T07:44:55.702Z,3.67
2023-12-04T07:47:25.836Z,3.92
2023-12-04T07:49:53.811Z,4.40
2023-12-04T07:52:21.558Z,5.50
2023-12-04T07:54:49.435Z,4.60
2023-12-04T07:57:17.671Z,4.18
2023-12-04T07:59:45.132Z,4.68
2023-12-04T08:02:12.604Z,4.38
2023-12-04T08:04:40.297Z,4.00
2023-12-04T08:07:08.185Z,3.97
2023-12-04T08:09:35.994Z,4.28
2023-12-04T08:12:03.641Z,4.70
2023-12-04T08:14:31.135Z,4.65
2023-12-04T08:16:58.817Z,4.15
2023-12-04T08:19:27.009Z,3.92
2023-12-04T08:21:54.669Z,4.03
2023-12-04T08:24:22.819Z,3.83
2023-12-04T08:26:52.202Z,4.03
2023-12-04T08:29:19.726Z,4.05
2023-12-04T08:31:47.260Z,3.85
2023-12-04T08:34:14.751Z,4.28
2023-12-04T08:36:45.576Z,4.07
2023-12-04T08:39:15.026Z,4.55
2023-12-04T08:41:48.159Z,5.05
2023-12-04T08:44:22.500Z,4.55
2023-12-04T08:46:49.995Z,4.43
2023-12-04T08:49:17.671Z,4.68
2023-12-04T08:51:45.235Z,4.55
2023-12-04T08:56:43.541Z,4.68
2023-12-04T08:59:11.008Z,4.00
2023-12-04T09:01:38.845Z,4.30
2023-12-04T09:04:06.863Z,3.70
2023-12-04T09:09:08.819Z,3.72
2023-12-04T09:11:45.347Z,4.63
2023-12-04T09:14:12.870Z,4.13
2023-12-04T09:16:40.436Z,4.40
2023-12-04T09:19:08.967Z,3.38
2023-12-04T09:21:37.185Z,3.72
2023-12-04T09:24:04.890Z,3.95
2023-12-04T09:26:32.899Z,4.88
2023-12-04T09:29:00.306Z,4.45
2023-12-04T09:31:27.885Z,4.40
2023-12-04T09:33:55.571Z,4.13
2023-12-04T09:36:23.124Z,3.92
2023-12-04T09:38:50.548Z,4.57
2023-12-04T09:41:18.465Z,4.47
2023-12-04T09:43:47.244Z,3.78
2023-12-04T09:46:15.774Z,4.88
2023-12-04T09:48:45.406Z,4.47
2023-12-04T09:51:14.162Z,4.57
2023-12-04T09:53:42.669Z,3.88
2023-12-04T09:56:11.136Z,4.28
2023-12-04T09:58:41.759Z,4.20
2023-12-04T10:01:09.892Z,4.10
2023-12-04T10:03:38.316Z,4.82
2023-12-04T10:06:07.467Z,4.28
2023-12-04T10:08:35.302Z,3.80
2023-12-04T10:11:02.991Z,4.45
2023-12-04T10:13:56.430Z,3.95
2023-12-04T10:16:36.414Z,4.93
2023-12-04T10:19:32.739Z,3.90
2023-12-04T10:22:01.344Z,4.88
2023-12-04T10:24:31.437Z,3.90
2023-12-04T10:26:59.555Z,4.28
2023-12-04T10:29:40.797Z,3.75
2023-12-04T10:32:08.190Z,4.10
2023-12-04T10:34:35.648Z,3.88
2023-12-04T10:37:05.300Z,3.85
2023-12-04T10:39:53.271Z,3.90
2023-12-04T10:42:32.013Z,3.97
2023-12-04T10:45:01.212Z,4.07
2023-12-04T10:47:34.369Z,3.63
2023-12-04T10:50:03.097Z,4.00
2023-12-04T10:52:33.292Z,4.47
2023-12-04T10:55:04.224Z,4.75
2023-12-04T10:57:40.787Z,4.15
2023-12-04T11:00:10.288Z,4.57
2023-12-04T11:02:48.843Z,4.00
2023-12-04T11:05:23.511Z,3.75
2023-12-04T11:08:15.018Z,3.92
2023-12-04T11:11:05.130Z,3.83
2023-12-04T11:13:35.628Z,4.53
2023-12-04T11:16:11.403Z,4.20
2023-12-04T11:18:43.622Z,4.25
2023-12-04T11:21:12.981Z,4.68
2023-12-04T11:23:41.402Z,4.30
2023-12-04T11:26:10.685Z,4.20
2023-12-04T11:28:39.987Z,3.70
2023-12-04T11:31:08.721Z,4.13
2023-12-04T11:33:37.999Z,4.13
2023-12-04T11:36:14.730Z,3.83
2023-12-04T11:38:48.297Z,4.27
2023-12-04T11:41:27.147Z,4.35
2023-12-04T11:43:59.375Z,4.05
2023-12-04T11:46:28.998Z,4.90
2023-12-04T11:49:33.785Z,4.53
2023-12-04T11:52:02.888Z,3.95
2023-12-04T11:54:31.738Z,4.55
2023-12-04T11:57:25.923Z,4.25
2023-12-04T12:00:22.630Z,4.25
2023-12-04T12:03:16.161Z,4.43
2023-12-04T12:05:43.960Z,4.07
2023-12-04T12:08:12.172Z,4.70
2023-12-04T12:10:40.129Z,4.03
2023-12-04T12:13:07.781Z,3.90
2023-12-04T12:15:35.961Z,4.35
2023-12-04T12:18:03.712Z,4.60
2023-12-04T12:20:31.529Z,4.60
2023-12-04T12:22:59.124Z,4.53
2023-12-04T12:25:27.753Z,3.75
2023-12-04T12:27:55.740Z,3.70
2023-12-04T12:30:23.446Z,4.87
2023-12-04T12:32:53.324Z,3.70
2023-12-04T12:35:20.957Z,4.25
2023-12-04T12:37:48.468Z,4.05
2023-12-04T12:40:15.982Z,3.70
2023-12-04T12:42:43.670Z,3.90
2023-12-04T12:45:13.454Z,4.00
2023-12-04T12:47:45.472Z,4.25
2023-12-04T12:50:15.597Z,4.22
2023-12-04T12:52:45.064Z,4.70
2023-12-04T12:55:12.621Z,4.50
2023-12-04T12:57:40.185Z,4.45
2023-12-04T13:00:08.878Z,4.30
2023-12-04T13:02:39.259Z,4.30
2023-12-04T13:07:43.396Z,4.50
2023-12-04T13:10:11.162Z,4.82
2023-12-04T13:12:38.714Z,4.03
2023-12-04T13:15:06.729Z,4.38
2023-12-04T13:17:34.212Z,5.13
2023-12-04T13:20:01.752Z,5.43
2023-12-04T13:22:29.358Z,5.07
2023-12-04T13:24:56.920Z,4.78
2023-12-04T13:27:24.405Z,4.78
2023-12-04T13:29:51.918Z,4.80
2023-12-04T13:32:19.345Z,4.93
2023-12-04T13:34:48.023Z,4.55
2023-12-04T13:37:15.646Z,4.68
2023-12-04T13:39:49.838Z,4.53
2023-12-04T13:42:36.650Z,4.25
2023-12-04T13:45:05.971Z,3.90
2023-12-04T13:47:36.231Z,4.40
2023-12-04T13:50:04.806Z,4.82
2023-12-04T13:52:35.407Z,4.55
2023-12-04T13:55:12.496Z,4.80
2023-12-04T13:57:56.138Z,4.73
2023-12-04T14:00:23.765Z,4.13
2023-12-04T14:02:54.909Z,4.72
2023-12-04T14:05:23.692Z,4.32
2023-12-04T14:07:51.622Z,4.30
2023-12-04T14:10:19.348Z,4.77
2023-12-04T14:12:47.206Z,5.80
2023-12-04T14:15:14.739Z,5.00
2023-12-04T14:17:42.350Z,4.38
2023-12-04T14:20:16.568Z,4.72
2023-12-04T14:22:45.043Z,5.13
2023-12-04T14:25:12.822Z,4.32
2023-12-04T14:27:41.921Z,4.63
2023-12-04T14:30:12.585Z,4.30
2023-12-04T14:32:47.189Z,4.68
2023-12-04T14:35:16.797Z,4.13
2023-12-04T14:37:44.574Z,4.10
2023-12-04T14:40:16.527Z,4.13
2023-12-04T14:42:46.041Z,4.45
2023-12-04T14:45:17.965Z,5.00
2023-12-04T14:47:45.567Z,4.73
2023-12-04T14:50:13.020Z,5.00
2023-12-04T14:52:48.385Z,4.80
2023-12-04T14:55:24.595Z,4.78
2023-12-04T14:58:02.196Z,5.53
2023-12-04T15:00:48.368Z,5.70
2023-12-04T15:03:41.335Z,6.72
2023-12-04T15:06:29.287Z,8.10
2023-12-04T15:09:15.320Z,6.97
2023-12-04T15:12:01.060Z,7.40
2023-12-04T15:14:37.285Z,7.15
2023-12-04T15:17:23.546Z,5.28
2023-12-04T15:20:09.294Z,6.18
2023-12-04T15:22:38.181Z,6.43
2023-12-04T15:25:10.347Z,5.95
2023-12-04T15:27:37.828Z,6.15
2023-12-04T15:30:08.227Z,5.60
2023-12-04T15:32:36.951Z,6.05
2023-12-04T15:35:08.052Z,5.15
2023-12-04T15:37:38.243Z,5.10
2023-12-04T15:40:06.498Z,5.30
2023-12-04T15:42:34.017Z,4.83
2023-12-04T15:45:02.287Z,5.82
2023-12-04T15:47:30.367Z,5.55
2023-12-04T15:49:59.431Z,4.70
2023-12-04T15:52:28.995Z,4.53
2023-12-04T15:54:56.883Z,4.53
2023-12-04T15:57:28.089Z,5.53
2023-12-04T15:59:55.634Z,4.80
2023-12-04T16:02:23.206Z,4.57
2023-12-04T16:04:50.898Z,4.35
2023-12-04T16:07:18.624Z,4.68
2023-12-04T16:09:46.272Z,4.90
2023-12-04T16:12:13.876Z,4.63
2023-12-04T16:14:41.347Z,4.00
2023-12-04T16:17:09.048Z,4.50
2023-12-04T16:19:38.684Z,4.32
2023-12-04T16:22:06.250Z,4.22
2023-12-04T16:24:34.154Z,5.20
2023-12-04T16:27:01.646Z,4.57
2023-12-04T16:29:35.135Z,4.57
2023-12-04T16:32:02.817Z,5.25
2023-12-04T16:34:30.942Z,4.78
2023-12-04T16:36:58.699Z,5.40
2023-12-04T16:39:27.959Z,6.10
2023-12-04T16:41:56.463Z,5.78
2023-12-04T16:44:24.286Z,5.90
2023-12-04T16:46:56.954Z,5.00
2023-12-04T16:49:24.940Z,4.97
2023-12-04T16:51:52.790Z,5.18
2023-12-04T16:54:21.362Z,4.57
2023-12-04T16:56:50.415Z,5.38
2023-12-04T16:59:18.374Z,5.75
2023-12-04T17:01:45.921Z,5.25
2023-12-04T17:04:14.822Z,5.40
2023-12-04T17:06:42.795Z,5.90
2023-12-04T17:09:16.532Z,4.50
2023-12-04T17:11:44.944Z,5.28
2023-12-04T17:14:12.682Z,5.18
2023-12-04T17:16:40.345Z,5.50
2023-12-04T17:19:09.114Z,6.63
2023-12-04T17:21:37.329Z,7.15
2023-12-04T17:24:06.160Z,7.07
2023-12-04T17:26:33.989Z,6.80
2023-12-04T17:29:01.520Z,6.93
2023-12-04T17:31:29.421Z,7.15
2023-12-04T17:33:57.348Z,7.22
2023-12-04T17:36:26.176Z,7.75
2023-12-04T17:38:53.755Z,8.32
2023-12-04T17:41:21.220Z,7.15
2023-12-04T17:43:49.619Z,8.30
2023-12-04T17:46:17.209Z,6.85
2023-12-04T17:48:46.200Z,7.20
2023-12-04T17:51:17.576Z,7.22
2023-12-04T17:53:45.498Z,8.05
2023-12-04T17:56:12.976Z,7.38
2023-12-04T17:58:40.482Z,7.50
2023-12-04T18:01:08.511Z,6.72
2023-12-04T18:03:37.245Z,6.88
2023-12-04T18:06:06.049Z,6.93
2023-12-04T18:08:35.209Z,6.30
2023-12-04T18:11:04.012Z,6.95
2023-12-04T18:13:31.532Z,8.25
2023-12-04T18:15:59.057Z,7.75
2023-12-04T18:18:26.980Z,7.05
2023-12-04T18:20:56.510Z,6.35
2023-12-04T18:23:24.632Z,6.70
2023-12-04T18:25:52.446Z,7.00
2023-12-04T18:28:20.054Z,6.95
2023-12-04T18:30:47.856Z,6.47
2023-12-04T18:33:15.710Z,6.05
2023-12-04T18:35:44.342Z,6.72
2023-12-04T18:38:15.281Z,6.10
2023-12-04T18:40:43.227Z,7.22
2023-12-04T18:43:12.172Z,6.70
2023-12-04T18:45:40.077Z,6.88
2023-12-04T18:48:10.552Z,7.85
2023-12-04T18:50:40.970Z,7.13
2023-12-04T18:53:10.923Z,7.65
2023-12-04T18:55:40.932Z,6.53
2023-12-04T18:58:14.570Z,7.22
2023-12-04T19:00:43.098Z,7.30
2023-12-04T19:03:11.254Z,7.20
2023-12-04T19:05:38.945Z,7.70
2023-12-04T19:08:07.143Z,8.35
2023-12-04T19:10:35.165Z,8.35
2023-12-04T19:13:02.664Z,8.02
2023-12-04T19:15:32.695Z,8.20
2023-12-04T19:18:00.675Z,8.02
2023-12-04T19:20:30.574Z,7.13
2023-12-04T19:22:58.755Z,6.63
2023-12-04T19:25:33.650Z,6.88
2023-12-04T19:28:01.918Z,6.80
2023-12-04T19:30:34.359Z,7.07
2023-12-04T19:33:04.234Z,6.22
2023-12-04T19:35:33.179Z,6.20
2023-12-04T19:38:00.660Z,5.82
2023-12-04T19:40:29.764Z,6.43
2023-12-04T19:42:57.301Z,5.82
2023-12-04T19:45:24.804Z,5.22
2023-12-04T19:47:53.456Z,5.18
2023-12-04T19:50:21.798Z,4.88
2023-12-04T19:52:49.281Z,5.15
2023-12-04T19:55:16.863Z,5.32
2023-12-04T19:57:44.573Z,4.38
2023-12-04T20:00:13.039Z,4.65
2023-12-04T20:02:41.589Z,4.40
2023-12-04T20:05:13.795Z,4.00
2023-12-04T20:07:42.235Z,4.00
2023-12-04T20:10:10.313Z,3.97
2023-12-04T20:12:37.976Z,5.95
2023-12-04T20:15:08.553Z,4.05
2023-12-04T20:17:36.091Z,3.85
2023-12-04T20:20:04.103Z,3.85
2023-12-04T20:22:31.782Z,3.05
2023-12-04T20:24:59.350Z,3.95
2023-12-04T20:27:27.363Z,3.42
2023-12-04T20:29:55.392Z,2.97
2023-12-04T20:32:22.845Z,2.92
2023-12-04T20:34:50.365Z,2.78
2023-12-04T20:37:17.849Z,3.30
2023-12-04T20:39:45.310Z,3.10
2023-12-04T20:42:12.879Z,3.05
2023-12-04T20:44:40.514Z,3.47
2023-12-04T20:47:08.106Z,3.47
2023-12-04T20:49:35.649Z,3.63
2023-12-04T20:52:04.741Z,3.78
2023-12-04T20:54:32.323Z,3.95
2023-12-04T20:56:59.854Z,3.40
2023-12-04T20:59:27.295Z,3.45
2023-12-04T21:01:55.085Z,3.35
2023-12-04T21:04:22.997Z,3.90
2023-12-04T21:06:50.498Z,3.97
2023-12-04T21:09:18.478Z,4.05
2023-12-04T21:11:46.003Z,3.60
2023-12-04T21:14:13.547Z,3.90
2023-12-04T21:16:48.135Z,3.50
2023-12-04T21:19:22.432Z,3.38
2023-12-04T21:21:50.329Z,4.05
2023-12-04T21:24:19.722Z,3.80
2023-12-04T21:26:48.392Z,4.13
2023-12-04T21:29:15.977Z,3.13
2023-12-04T21:31:43.542Z,2.83
2023-12-04T21:34:11.102Z,3.50
2023-12-04T21:36:38.685Z,3.25
2023-12-04T21:39:07.057Z,3.20
2023-12-04T21:41:34.625Z,2.85
2023-12-04T21:44:03.188Z,3.17
2023-12-04T21:46:30.906Z,3.10
2023-12-04T21:48:59.013Z,2.83
2023-12-04T21:51:26.877Z,3.10
2023-12-04T21:53:54.906Z,3.10
2023-12-04T21:56:22.466Z,2.90
2023-12-04T21:58:49.936Z,2.80
2023-12-04T22:01:18.051Z,2.70
2023-12-04T22:03:46.290Z,2.60
2023-12-04T22:06:14.056Z,2.22
2023-12-04T22:08:41.977Z,2.45
2023-12-04T22:11:09.806Z,2.40
2023-12-04T22:13:37.771Z,2.67
2023-12-04T22:16:05.910Z,2.67
2023-12-04T22:18:36.291Z,2.83
2023-12-04T22:21:04.213Z,1.85
2023-12-04T22:23:32.234Z,2.63
2023-12-04T22:26:01.209Z,2.28
2023-12-04T22:28:29.492Z,3.03
2023-12-04T22:30:57.069Z,2.15
2023-12-04T22:33:24.832Z,3.17
2023-12-04T22:35:52.621Z,2.25
2023-12-04T22:38:20.174Z,2.53
2023-12-04T22:40:47.897Z,2.58
2023-12-04T22:43:15.660Z,2.35
2023-12-04T22:45:43.302Z,2.33
2023-12-04T22:48:10.966Z,2.13
2023-12-04T22:50:38.918Z,2.45
2023-12-04T22:53:09.740Z,2.50
2023-12-04T22:55:39.900Z,2.15
2023-12-04T22:58:07.689Z,2.42
2023-12-04T23:00:35.564Z,2.10
2023-12-04T23:03:03.412Z,2.42
2023-12-04T23:05:32.532Z,2.67
2023-12-04T23:07:59.976Z,2.45
2023-12-04T23:10:27.419Z,2.25
2023-12-04T23:12:58.007Z,2.30
2023-12-04T23:15:25.652Z,2.20
2023-12-04T23:17:53.342Z,2.20
2023-12-04T23:20:20.994Z,2.40
2023-12-04T23:22:48.447Z,2.40
2023-12-04T23:25:16.129Z,2.05
2023-12-04T23:27:43.580Z,2.20
2023-12-04T23:30:11.354Z,2.33
2023-12-04T23:32:39.122Z,2.00
2023-12-04T23:35:06.952Z,1.85
2023-12-04T23:37:34.518Z,2.55
2023-12-04T23:40:02.120Z,2.13
2023-12-04T23:42:29.754Z,2.15
2023-12-04T23:44:57.413Z,2.33
2023-12-04T23:47:24.904Z,2.33
2023-12-04T23:49:52.514Z,2.40
2023-12-04T23:52:20.369Z,2.47
2023-12-04T23:54:47.968Z,2.15
2023-12-04T23:57:15.582Z,2.50
2023-12-04T23:59:43.018Z,2.15
